Time;durP1;ratioP1;P1;durP2;ratioP2;P2;SDS_P1;SDS_P2;PMS_P1;PMS_P2;Temp;Humidity;BMP_temperature;BMP_pressure;BME280_temperature;BME280_humidity;BME280_pressure;Samples;Min_cycle;Max_cycle;Signal;HPM_P1;HPM_P2
2020/12/22 00:00:33;;;;;;;101.90;51.97;;;3.00;94.10;;;;;;5002959;28;20616;-80
2020/12/22 00:03:10;;;;;;;101.10;52.67;;;3.00;94.10;;;;;;5007767;28;20209;-80
2020/12/22 00:05:38;;;;;;;105.07;53.57;;;3.00;94.00;;;;;;5018897;28;20203;-80
2020/12/22 00:08:11;;;;;;;100.40;51.57;;;2.90;94.00;;;;;;5025948;28;21089;-82
2020/12/22 00:10:39;;;;;;;108.43;54.00;;;2.90;94.00;;;;;;5026399;28;20198;-80
2020/12/22 00:13:07;;;;;;;101.83;51.70;;;2.90;94.00;;;;;;5020986;28;20242;-81
2020/12/22 00:15:34;;;;;;;109.40;51.70;;;3.00;94.10;;;;;;5020372;28;20211;-80
2020/12/22 00:18:07;;;;;;;102.43;51.80;;;2.90;94.00;;;;;;5019230;28;20273;-80
2020/12/22 00:20:36;;;;;;;103.10;53.07;;;3.10;94.10;;;;;;5013337;28;20499;-80
2020/12/22 00:23:04;;;;;;;98.33;53.17;;;2.90;94.00;;;;;;5022058;28;20297;-81
2020/12/22 00:25:32;;;;;;;107.20;53.80;;;2.90;94.00;;;;;;5001694;28;20577;-82
2020/12/22 00:28:00;;;;;;;102.70;54.20;;;2.90;94.00;;;;;;5015794;28;20226;-81
2020/12/22 00:30:27;;;;;;;106.73;55.13;;;2.90;94.00;;;;;;5012065;28;20222;-81
2020/12/22 00:32:55;;;;;;;99.50;53.93;;;2.90;94.00;;;;;;5018282;28;20236;-80
2020/12/22 00:35:22;;;;;;;112.07;54.30;;;2.90;94.00;;;;;;5006224;28;20215;-81
2020/12/22 00:37:50;;;;;;;97.93;53.33;;;2.90;94.00;;;;;;5013315;28;20212;-80
2020/12/22 00:40:18;;;;;;;107.93;53.43;;;2.90;94.00;;;;;;5001033;28;20574;-80
2020/12/22 00:42:45;;;;;;;101.90;53.20;;;2.90;94.00;;;;;;5006483;28;20222;-80
2020/12/22 00:45:13;;;;;;;105.23;51.80;;;2.90;94.00;;;;;;5032907;28;20270;-82
2020/12/22 00:47:41;;;;;;;102.67;51.73;;;2.90;94.00;;;;;;5022969;28;20204;-81
2020/12/22 00:50:09;;;;;;;99.93;53.63;;;2.90;94.00;;;;;;5031357;28;20206;-82
2020/12/22 00:52:36;;;;;;;100.50;52.70;;;2.90;94.00;;;;;;5027333;28;20422;-82
2020/12/22 00:55:04;;;;;;;107.63;54.70;;;2.90;94.00;;;;;;5020520;28;20384;-82
2020/12/22 00:57:31;;;;;;;101.40;52.87;;;2.90;94.00;;;;;;5025847;28;20226;-82
2020/12/22 00:59:59;;;;;;;97.70;53.90;;;2.90;94.00;;;;;;5016458;28;20256;-81
2020/12/22 01:02:27;;;;;;;103.27;53.13;;;2.90;94.00;;;;;;5006942;28;20225;-80
2020/12/22 01:04:55;;;;;;;107.90;54.97;;;2.90;94.00;;;;;;5013556;28;20293;-81
2020/12/22 01:07:23;;;;;;;96.30;53.27;;;2.90;94.00;;;;;;4999862;28;20212;-82
2020/12/22 01:09:50;;;;;;;97.50;51.10;;;2.90;94.00;;;;;;5007037;28;20962;-81
2020/12/22 01:12:18;;;;;;;105.27;52.00;;;2.80;94.00;;;;;;5016587;28;20279;-81
2020/12/22 01:14:45;;;;;;;107.10;53.53;;;2.80;94.00;;;;;;5014836;28;20208;-82
2020/12/22 01:17:13;;;;;;;98.20;52.50;;;2.90;94.00;;;;;;5004357;28;20211;-80
2020/12/22 01:19:41;;;;;;;99.60;51.43;;;2.80;94.00;;;;;;5034936;28;20191;-82
2020/12/22 01:22:08;;;;;;;97.33;51.90;;;2.80;94.00;;;;;;5030273;28;20203;-81
2020/12/22 01:24:36;;;;;;;102.13;52.70;;;2.90;94.00;;;;;;5027579;28;20212;-81
2020/12/22 01:27:04;;;;;;;100.87;53.00;;;2.90;94.00;;;;;;5005379;28;20244;-80
2020/12/22 01:29:31;;;;;;;98.53;53.73;;;2.90;94.00;;;;;;5005299;28;20310;-81
2020/12/22 01:31:59;;;;;;;110.90;54.80;;;2.90;94.00;;;;;;5015400;28;20199;-82
2020/12/22 01:34:26;;;;;;;103.40;52.57;;;2.90;94.00;;;;;;5008609;28;20650;-80
2020/12/22 01:36:54;;;;;;;99.70;51.33;;;2.90;94.00;;;;;;5001222;28;20208;-82
2020/12/22 01:39:22;;;;;;;98.63;51.10;;;2.90;94.00;;;;;;5017080;28;21029;-82
2020/12/22 01:41:49;;;;;;;98.57;53.50;;;2.90;94.00;;;;;;5008455;28;20213;-82
2020/12/22 01:44:18;;;;;;;92.30;50.53;;;3.00;94.10;;;;;;5006501;28;20216;-81
2020/12/22 01:46:47;;;;;;;99.80;51.37;;;3.00;94.10;;;;;;5011262;28;20612;-79
2020/12/22 01:49:17;;;;;;;96.37;50.70;;;3.00;94.10;;;;;;5005210;28;20790;-81
2020/12/22 01:51:47;;;;;;;93.43;51.47;;;3.00;94.10;;;;;;5011159;28;20612;-81
2020/12/22 01:54:17;;;;;;;90.27;50.40;;;3.00;94.10;;;;;;5011182;28;20260;-79
2020/12/22 01:56:45;;;;;;;95.23;49.43;;;3.10;94.10;;;;;;4997592;28;20225;-82
2020/12/22 01:59:12;;;;;;;88.67;51.30;;;3.00;94.10;;;;;;5001787;28;20230;-82
2020/12/22 02:01:41;;;;;;;91.03;51.00;;;3.10;94.10;;;;;;5009980;28;20204;-81
2020/12/22 02:04:10;;;;;;;83.67;48.67;;;3.00;94.10;;;;;;5010099;28;20559;-81
2020/12/22 02:06:38;;;;;;;90.57;49.63;;;3.10;94.10;;;;;;5015643;28;20208;-82
2020/12/22 02:09:07;;;;;;;88.40;48.47;;;3.00;94.00;;;;;;5013162;28;20975;-82
2020/12/22 02:11:38;;;;;;;92.00;49.53;;;3.00;94.00;;;;;;5011935;28;20233;-79
2020/12/22 02:14:08;;;;;;;83.13;46.57;;;3.10;94.10;;;;;;5014162;28;20785;-81
2020/12/22 02:16:37;;;;;;;93.00;49.83;;;3.10;94.10;;;;;;5021862;28;20529;-82
2020/12/22 02:19:23;;;;;;;85.50;49.53;;;3.00;94.00;;;;;;4999627;28;20204;-80
2020/12/22 02:21:51;;;;;;;82.67;49.50;;;2.90;94.00;;;;;;5012357;28;20205;-80
2020/12/22 02:24:19;;;;;;;90.40;48.57;;;3.00;94.00;;;;;;5005993;28;20240;-81
2020/12/22 02:26:47;;;;;;;86.60;46.90;;;3.00;94.00;;;;;;5013066;28;20561;-81
2020/12/22 02:29:14;;;;;;;82.87;47.50;;;3.00;94.00;;;;;;5015975;28;20208;-82
2020/12/22 02:31:43;;;;;;;86.33;48.97;;;3.00;93.90;;;;;;5022624;28;20196;-80
2020/12/22 02:34:11;;;;;;;83.03;47.63;;;2.90;93.90;;;;;;5037151;28;20278;-81
2020/12/22 02:36:40;;;;;;;86.37;47.63;;;3.00;93.90;;;;;;5001085;28;20205;-81
2020/12/22 02:39:08;;;;;;;91.57;50.03;;;3.00;93.90;;;;;;5003748;28;20800;-80
2020/12/22 02:41:36;;;;;;;90.00;49.27;;;2.90;93.90;;;;;;5020203;28;20211;-80
2020/12/22 02:44:03;;;;;;;84.57;48.40;;;2.90;93.90;;;;;;5001438;28;20291;-80
2020/12/22 02:46:31;;;;;;;86.57;49.70;;;2.90;93.90;;;;;;5025458;28;20227;-82
2020/12/22 02:49:01;;;;;;;88.37;48.80;;;2.90;93.90;;;;;;5023781;28;20230;-82
2020/12/22 02:51:29;;;;;;;87.20;49.20;;;2.90;93.90;;;;;;5026079;28;20199;-81
2020/12/22 02:53:57;;;;;;;85.90;47.77;;;2.90;93.90;;;;;;5029123;28;20211;-79
2020/12/22 02:56:26;;;;;;;87.03;48.33;;;2.90;93.90;;;;;;5019465;28;20204;-80
2020/12/22 02:58:53;;;;;;;87.87;49.03;;;2.90;93.90;;;;;;5005234;28;20211;-81
2020/12/22 03:01:20;;;;;;;89.17;49.53;;;2.80;93.80;;;;;;5011071;28;20205;-83
2020/12/22 03:03:48;;;;;;;84.77;45.50;;;3.00;93.90;;;;;;5025973;28;20183;-82
2020/12/22 03:06:16;;;;;;;84.93;48.80;;;2.80;93.80;;;;;;5021352;28;20208;-80
2020/12/22 03:08:44;;;;;;;85.50;47.23;;;2.80;93.80;;;;;;5016561;28;20208;-80
2020/12/22 03:11:12;;;;;;;83.57;47.87;;;2.80;93.80;;;;;;5004439;28;20655;-81
2020/12/22 03:13:40;;;;;;;87.80;48.60;;;2.80;93.80;;;;;;5015419;28;20588;-80
2020/12/22 03:16:07;;;;;;;82.57;47.13;;;2.70;93.80;;;;;;5017663;28;20215;-81
2020/12/22 03:18:35;;;;;;;89.57;48.77;;;2.70;93.80;;;;;;5002604;28;20282;-81
2020/12/22 03:21:03;;;;;;;82.47;47.00;;;2.70;93.80;;;;;;5015452;28;20238;-81
2020/12/22 03:23:30;;;;;;;85.43;49.13;;;2.80;93.80;;;;;;5009714;28;20208;-81
2020/12/22 03:25:58;;;;;;;85.53;46.03;;;2.70;93.80;;;;;;5000590;28;20254;-81
2020/12/22 03:28:25;;;;;;;85.73;47.93;;;2.70;93.80;;;;;;5016761;28;20208;-80
2020/12/22 03:30:53;;;;;;;95.60;48.73;;;2.70;93.70;;;;;;5003816;28;20262;-81
2020/12/22 03:33:21;;;;;;;90.13;49.57;;;2.70;93.70;;;;;;5021774;28;20232;-81
2020/12/22 03:35:49;;;;;;;90.53;49.53;;;2.60;93.70;;;;;;5013600;28;20209;-81
2020/12/22 03:38:17;;;;;;;91.20;48.53;;;2.60;93.80;;;;;;5026555;28;20208;-81
2020/12/22 03:40:45;;;;;;;90.73;48.33;;;2.60;93.70;;;;;;5046650;28;20266;-81
2020/12/22 03:43:12;;;;;;;94.07;48.77;;;2.60;93.80;;;;;;5038235;28;20363;-80
2020/12/22 03:45:42;;;;;;;90.40;48.73;;;2.60;93.80;;;;;;5037651;28;20207;-81
2020/12/22 03:48:10;;;;;;;83.87;47.20;;;2.60;93.80;;;;;;5022412;28;20203;-81
2020/12/22 03:50:37;;;;;;;92.13;48.27;;;2.60;93.70;;;;;;5025213;28;20303;-80
2020/12/22 03:53:06;;;;;;;91.90;49.43;;;2.60;93.70;;;;;;5031741;28;20493;-81
2020/12/22 03:55:34;;;;;;;83.43;47.93;;;2.60;93.70;;;;;;5036765;28;20192;-81
2020/12/22 03:58:01;;;;;;;91.47;47.10;;;2.60;93.70;;;;;;5023326;28;20209;-81
2020/12/22 04:00:29;;;;;;;92.53;49.13;;;2.60;93.70;;;;;;5006443;28;20199;-80
2020/12/22 04:02:56;;;;;;;87.93;48.23;;;2.50;93.70;;;;;;5015170;28;20548;-81
2020/12/22 04:05:24;;;;;;;82.93;46.00;;;2.60;93.70;;;;;;5006410;28;20199;-81
2020/12/22 04:07:52;;;;;;;84.43;46.97;;;2.60;93.70;;;;;;5017740;28;20208;-81
2020/12/22 04:10:20;;;;;;;89.73;47.80;;;2.60;93.70;;;;;;5007191;28;20207;-81
2020/12/22 04:12:47;;;;;;;88.23;46.63;;;2.80;93.80;;;;;;5031998;28;20207;-80
2020/12/22 04:15:15;;;;;;;89.00;47.83;;;2.60;93.70;;;;;;5037548;28;20203;-81
2020/12/22 04:17:43;;;;;;;85.03;47.40;;;2.60;93.70;;;;;;5028899;28;20278;-81
2020/12/22 04:20:11;;;;;;;87.87;48.43;;;2.60;93.70;;;;;;5014128;28;20222;-81
2020/12/22 04:22:39;;;;;;;83.70;44.83;;;2.60;93.70;;;;;;5018324;28;20195;-81
2020/12/22 04:25:07;;;;;;;81.30;46.57;;;2.60;93.70;;;;;;5004205;28;20269;-80
2020/12/22 04:27:35;;;;;;;83.67;47.43;;;2.60;93.70;;;;;;5020140;28;20270;-80
2020/12/22 04:30:04;;;;;;;87.07;47.23;;;2.60;93.70;;;;;;5008333;28;20290;-82
2020/12/22 04:32:31;;;;;;;80.10;45.97;;;2.60;93.60;;;;;;5004131;28;20539;-80
2020/12/22 04:34:59;;;;;;;83.73;45.57;;;2.60;93.60;;;;;;5009214;28;20226;-82
2020/12/22 04:37:26;;;;;;;79.13;44.53;;;2.60;93.60;;;;;;5006472;28;20755;-80
2020/12/22 04:39:55;;;;;;;85.70;45.47;;;2.60;93.60;;;;;;5006195;28;20212;-80
2020/12/22 04:42:24;;;;;;;80.63;44.60;;;2.60;93.60;;;;;;5016687;28;20268;-80
2020/12/22 04:44:52;;;;;;;78.17;43.93;;;2.70;93.60;;;;;;5008788;28;20302;-81
2020/12/22 04:47:25;;;;;;;80.37;44.00;;;2.70;93.60;;;;;;5007430;28;20674;-81
2020/12/22 04:50:00;;;;;;;81.50;44.53;;;2.70;93.60;;;;;;5000296;28;20294;-81
2020/12/22 04:52:29;;;;;;;83.13;44.27;;;2.70;93.60;;;;;;5005712;28;20272;-80
2020/12/22 04:54:58;;;;;;;79.23;43.67;;;2.70;93.60;;;;;;5010617;28;20287;-80
2020/12/22 04:57:31;;;;;;;85.77;45.17;;;2.70;93.60;;;;;;5022825;28;20273;-80
2020/12/22 05:00:00;;;;;;;78.23;43.60;;;2.70;93.60;;;;;;5008537;28;20632;-81
2020/12/22 05:02:28;;;;;;;79.43;42.83;;;2.70;93.60;;;;;;5017366;28;20203;-79
2020/12/22 05:04:56;;;;;;;76.90;43.97;;;2.60;93.50;;;;;;5009023;28;20290;-80
2020/12/22 05:07:23;;;;;;;81.27;43.30;;;2.70;93.50;;;;;;5008764;28;20207;-82
2020/12/22 05:09:53;;;;;;;75.03;42.40;;;2.70;93.50;;;;;;5009179;28;20207;-79
2020/12/22 05:12:21;;;;;;;76.20;43.10;;;2.70;93.50;;;;;;5009748;28;20210;-81
2020/12/22 05:14:49;;;;;;;74.10;41.13;;;2.70;93.50;;;;;;5015450;28;20223;-81
2020/12/22 05:17:16;;;;;;;74.03;43.13;;;2.70;93.50;;;;;;5004997;28;20598;-80
2020/12/22 05:19:44;;;;;;;71.37;39.83;;;2.70;93.40;;;;;;5009176;28;20217;-82
2020/12/22 05:22:12;;;;;;;71.00;40.53;;;2.70;93.40;;;;;;5020585;28;20210;-81
2020/12/22 05:24:39;;;;;;;69.77;40.50;;;2.70;93.40;;;;;;5011583;28;20212;-81
2020/12/22 05:27:07;;;;;;;74.53;39.77;;;2.70;93.40;;;;;;5014131;28;20265;-81
2020/12/22 05:29:37;;;;;;;77.87;39.80;;;2.70;93.40;;;;;;5012373;28;20305;-80
2020/12/22 05:32:05;;;;;;;73.33;38.87;;;2.70;93.40;;;;;;5008264;28;20196;-81
2020/12/22 05:34:32;;;;;;;67.77;38.93;;;2.80;93.40;;;;;;5012216;28;20242;-81
2020/12/22 05:37:00;;;;;;;68.67;38.70;;;2.70;93.40;;;;;;5013968;28;20196;-79
2020/12/22 05:39:27;;;;;;;66.10;37.77;;;2.70;93.30;;;;;;5016751;28;20672;-81
2020/12/22 05:41:55;;;;;;;66.93;36.93;;;2.70;93.30;;;;;;5028031;28;20642;-81
2020/12/22 05:44:26;;;;;;;66.83;38.47;;;2.70;93.30;;;;;;5024978;28;20235;-81
2020/12/22 05:46:59;;;;;;;66.40;36.67;;;2.80;93.30;;;;;;5011965;28;20230;-81
2020/12/22 05:49:27;;;;;;;63.17;35.17;;;2.80;93.30;;;;;;5008555;28;20207;-81
2020/12/22 05:51:55;;;;;;;61.23;34.40;;;2.70;93.20;;;;;;5010826;28;20211;-81
2020/12/22 05:54:23;;;;;;;64.43;35.23;;;2.70;93.20;;;;;;5007622;28;20473;-82
2020/12/22 05:56:50;;;;;;;63.20;36.67;;;2.70;93.10;;;;;;5010257;28;20200;-81
2020/12/22 05:59:19;;;;;;;65.33;36.60;;;2.70;93.10;;;;;;5008085;28;20214;-82
2020/12/22 06:01:47;;;;;;;62.07;35.37;;;2.60;93.10;;;;;;5026983;28;20218;-79
2020/12/22 06:04:18;;;;;;;67.90;35.63;;;2.70;93.10;;;;;;5004116;28;20558;-81
2020/12/22 06:06:47;;;;;;;63.77;34.87;;;2.70;93.10;;;;;;5020992;28;20209;-81
2020/12/22 06:09:16;;;;;;;62.40;35.37;;;2.70;93.00;;;;;;5023370;28;20199;-82
2020/12/22 06:11:48;;;;;;;70.03;37.70;;;2.60;93.00;;;;;;5022203;28;20982;-81
2020/12/22 06:14:24;;;;;;;61.23;33.90;;;2.80;93.00;;;;;;5026156;28;20310;-82
2020/12/22 06:16:52;;;;;;;60.20;34.37;;;2.70;93.00;;;;;;5022185;28;20212;-81
2020/12/22 06:19:21;;;;;;;62.60;33.33;;;2.70;93.00;;;;;;5030550;28;20226;-81
2020/12/22 06:21:58;;;;;;;61.87;34.47;;;2.70;92.90;;;;;;5030498;28;20198;-81
2020/12/22 06:24:26;;;;;;;57.63;33.13;;;2.60;92.90;;;;;;5029711;28;20290;-81
2020/12/22 06:27:06;;;;;;;54.63;32.20;;;2.70;92.90;;;;;;5023442;28;20264;-81
2020/12/22 06:29:35;;;;;;;60.10;33.77;;;2.60;92.90;;;;;;5018437;28;20227;-81
2020/12/22 06:32:25;;;;;;;57.90;32.63;;;2.70;93.00;;;;;;5026775;28;20203;-81
2020/12/22 06:34:55;;;;;;;54.73;32.03;;;2.70;92.90;;;;;;5012561;28;20309;-79
2020/12/22 06:37:39;;;;;;;50.93;30.63;;;2.70;92.80;;;;;;5008295;28;20215;-83
2020/12/22 06:40:10;;;;;;;55.20;30.73;;;2.60;92.80;;;;;;5003785;28;20740;-81
2020/12/22 06:42:47;;;;;;;59.00;32.17;;;2.60;92.80;;;;;;5011866;28;20297;-81
2020/12/22 06:45:29;;;;;;;54.40;29.83;;;2.70;92.80;;;;;;5017992;28;20218;-81
2020/12/22 06:48:00;;;;;;;53.67;30.20;;;2.70;92.80;;;;;;5026889;28;20227;-80
2020/12/22 06:50:40;;;;;;;51.53;29.90;;;2.70;92.70;;;;;;5025323;28;20691;-78
2020/12/22 06:53:34;;;;;;;50.73;28.00;;;2.70;92.60;;;;;;5024323;28;20199;-81
2020/12/22 06:56:03;;;;;;;54.57;30.07;;;2.70;92.60;;;;;;5028154;28;20474;-80
2020/12/22 06:58:39;;;;;;;51.03;28.77;;;2.70;92.60;;;;;;5028544;28;20198;-79
2020/12/22 07:01:30;;;;;;;49.50;29.03;;;2.70;92.60;;;;;;5033318;28;20293;-79
2020/12/22 07:04:13;;;;;;;51.63;29.23;;;2.60;92.60;;;;;;5034099;28;20270;-80
2020/12/22 07:07:02;;;;;;;55.23;30.27;;;2.60;92.60;;;;;;5033616;28;20224;-80
2020/12/22 07:09:34;;;;;;;51.53;29.03;;;2.60;92.70;;;;;;5041153;28;20184;-81
2020/12/22 07:12:15;;;;;;;52.50;30.23;;;2.70;92.70;;;;;;5030022;28;20260;-82
2020/12/22 07:14:49;;;;;;;47.57;28.17;;;2.60;92.60;;;;;;5026615;28;20531;-81
2020/12/22 07:17:20;;;;;;;50.23;29.37;;;2.60;92.60;;;;;;5026823;28;20826;-83
2020/12/22 07:19:49;;;;;;;53.33;28.40;;;2.60;92.60;;;;;;5017992;28;20994;-81
2020/12/22 07:22:34;;;;;;;49.63;28.43;;;2.70;92.50;;;;;;5024178;28;20221;-78
2020/12/22 07:25:03;;;;;;;49.77;28.67;;;2.70;92.50;;;;;;5025041;28;20607;-80
2020/12/22 07:27:32;;;;;;;48.37;29.17;;;2.80;92.60;;;;;;5013683;28;20429;-79
2020/12/22 07:30:00;;;;;;;48.77;28.37;;;2.90;92.30;;;;;;5005874;28;20210;-81
2020/12/22 07:32:27;;;;;;;50.87;28.87;;;2.70;92.30;;;;;;5008518;28;20601;-79
2020/12/22 07:34:55;;;;;;;48.30;27.97;;;2.70;92.30;;;;;;5030755;28;20226;-81
2020/12/22 07:37:23;;;;;;;52.77;28.33;;;2.70;92.30;;;;;;5019165;28;20209;-81
2020/12/22 07:39:55;;;;;;;48.30;28.80;;;2.60;92.30;;;;;;5017221;28;20859;-82
2020/12/22 07:42:23;;;;;;;44.83;26.67;;;2.70;92.30;;;;;;5019798;28;20202;-80
2020/12/22 07:44:51;;;;;;;50.70;29.23;;;2.70;92.30;;;;;;5009424;28;20470;-80
2020/12/22 07:47:19;;;;;;;49.20;27.50;;;2.70;92.20;;;;;;5015731;28;20217;-82
2020/12/22 07:49:47;;;;;;;48.90;26.43;;;2.70;92.20;;;;;;5004999;28;20705;-80
2020/12/22 07:52:18;;;;;;;44.87;26.77;;;2.70;92.20;;;;;;5002373;28;20874;-80
2020/12/22 07:54:58;;;;;;;42.00;25.23;;;2.80;92.20;;;;;;5005897;28;21754;-80
2020/12/22 07:57:26;;;;;;;43.93;26.83;;;2.80;92.10;;;;;;5004224;28;20226;-81
2020/12/22 08:00:01;;;;;;;47.33;26.53;;;2.70;91.90;;;;;;5012933;28;20574;-79
2020/12/22 08:02:40;;;;;;;42.93;25.23;;;2.70;91.90;;;;;;5008741;28;20203;-80
2020/12/22 08:05:13;;;;;;;47.00;26.00;;;2.70;92.00;;;;;;5019378;28;20433;-82
2020/12/22 08:07:42;;;;;;;44.13;25.07;;;2.70;92.00;;;;;;5009506;28;20295;-83
2020/12/22 08:10:12;;;;;;;45.17;26.13;;;2.70;92.10;;;;;;5014528;28;20796;-82
2020/12/22 08:12:40;;;;;;;47.73;27.23;;;2.70;92.00;;;;;;5014485;28;20645;-81
2020/12/22 08:15:10;;;;;;;43.53;24.47;;;2.70;92.10;;;;;;5008236;28;20246;-82
2020/12/22 08:17:42;;;;;;;43.10;25.03;;;2.70;92.00;;;;;;5018371;28;20422;-80
2020/12/22 08:20:12;;;;;;;43.93;24.70;;;2.70;92.00;;;;;;5015402;28;20199;-81
2020/12/22 08:22:42;;;;;;;50.97;25.43;;;2.70;91.90;;;;;;5014824;28;20211;-82
2020/12/22 08:25:12;;;;;;;44.67;25.60;;;2.70;91.90;;;;;;5013923;28;20361;-82
2020/12/22 08:27:44;;;;;;;44.70;25.03;;;2.70;91.80;;;;;;5008516;28;20632;-83
2020/12/22 08:30:19;;;;;;;44.27;25.40;;;2.70;92.00;;;;;;5020965;28;20306;-80
2020/12/22 08:32:47;;;;;;;38.33;21.93;;;2.80;92.00;;;;;;5026367;28;20193;-81
2020/12/22 08:35:20;;;;;;;42.50;25.13;;;2.70;91.80;;;;;;5031121;28;21058;-82
2020/12/22 08:37:48;;;;;;;43.97;23.10;;;2.70;91.90;;;;;;5025727;28;20209;-81
2020/12/22 08:40:27;;;;;;;41.20;24.37;;;2.70;91.80;;;;;;5010581;28;20200;-80
2020/12/22 08:42:56;;;;;;;42.83;24.10;;;2.70;91.90;;;;;;5007510;28;20203;-82
2020/12/22 08:45:26;;;;;;;41.63;23.33;;;2.70;91.90;;;;;;5007766;28;20732;-81
2020/12/22 08:47:54;;;;;;;42.83;23.77;;;2.70;91.80;;;;;;5008941;28;20503;-82
2020/12/22 08:50:22;;;;;;;40.80;23.30;;;2.70;92.00;;;;;;5006536;28;20208;-82
2020/12/22 08:52:50;;;;;;;40.20;23.13;;;2.70;91.90;;;;;;5008914;28;20542;-82
2020/12/22 08:55:18;;;;;;;41.53;22.70;;;2.70;91.80;;;;;;5013356;28;20221;-80
2020/12/22 08:57:50;;;;;;;40.40;24.67;;;2.60;91.80;;;;;;5008422;28;20207;-82
2020/12/22 09:00:18;;;;;;;42.90;22.80;;;2.70;92.00;;;;;;5027157;28;20201;-82
2020/12/22 09:02:51;;;;;;;43.43;25.17;;;2.60;91.90;;;;;;5030659;28;20505;-80
2020/12/22 09:05:20;;;;;;;45.50;24.23;;;2.60;91.90;;;;;;5028024;28;20223;-80
2020/12/22 09:07:58;;;;;;;42.40;24.53;;;2.70;91.90;;;;;;5030798;28;20317;-80
2020/12/22 09:10:25;;;;;;;42.87;25.53;;;2.70;91.90;;;;;;5028389;28;20208;-80
2020/12/22 09:12:55;;;;;;;42.40;24.10;;;2.70;92.00;;;;;;5016090;28;20205;-81
2020/12/22 09:15:23;;;;;;;42.17;25.13;;;2.70;92.00;;;;;;5017705;28;20226;-81
2020/12/22 09:17:50;;;;;;;42.43;23.97;;;2.70;91.90;;;;;;5035828;28;20222;-80
2020/12/22 09:20:18;;;;;;;41.03;24.17;;;2.80;91.90;;;;;;5035732;28;20200;-81
2020/12/22 09:22:46;;;;;;;43.60;24.03;;;2.80;92.00;;;;;;5027580;28;20199;-84
2020/12/22 09:25:14;;;;;;;43.47;24.83;;;2.80;91.90;;;;;;5015583;28;20205;-81
2020/12/22 09:27:42;;;;;;;39.20;23.33;;;2.80;91.90;;;;;;5010283;28;20199;-82
2020/12/22 09:30:13;;;;;;;46.00;25.93;;;2.80;91.90;;;;;;5010341;28;20216;-83
2020/12/22 09:32:43;;;;;;;44.97;25.73;;;2.90;91.80;;;;;;5011817;28;20235;-83
2020/12/22 09:35:12;;;;;;;39.80;24.17;;;2.90;91.90;;;;;;4999362;28;20660;-82
2020/12/22 09:37:40;;;;;;;42.70;24.27;;;2.90;92.00;;;;;;5007248;28;20208;-82
2020/12/22 09:40:09;;;;;;;38.87;23.53;;;2.80;92.10;;;;;;5005132;28;20476;-80
2020/12/22 09:42:37;;;;;;;46.00;24.27;;;2.90;92.20;;;;;;5007118;28;20199;-81
2020/12/22 09:45:07;;;;;;;44.33;25.13;;;2.90;92.40;;;;;;5018644;28;20828;-81
2020/12/22 09:47:36;;;;;;;40.73;23.50;;;2.80;92.40;;;;;;5025615;28;20410;-81
2020/12/22 09:50:04;;;;;;;41.00;23.73;;;2.80;92.60;;;;;;5027342;28;20508;-81
2020/12/22 09:52:31;;;;;;;38.40;23.27;;;2.80;92.70;;;;;;5011126;28;20208;-81
2020/12/22 09:54:59;;;;;;;45.10;24.47;;;2.80;92.80;;;;;;5010311;28;20704;-83
2020/12/22 09:57:26;;;;;;;43.40;23.97;;;2.70;92.90;;;;;;5012881;28;20544;-83
2020/12/22 09:59:54;;;;;;;45.50;24.77;;;2.70;93.00;;;;;;5028297;28;20196;-82
2020/12/22 10:02:21;;;;;;;45.77;25.30;;;2.70;93.10;;;;;;5027790;28;20288;-83
2020/12/22 10:04:50;;;;;;;41.57;23.97;;;2.80;93.20;;;;;;5027850;28;20486;-81
2020/12/22 10:07:17;;;;;;;47.13;25.07;;;2.70;93.20;;;;;;5010237;28;20199;-81
2020/12/22 10:09:45;;;;;;;45.70;25.57;;;2.80;93.30;;;;;;5007879;28;20208;-82
2020/12/22 10:12:13;;;;;;;43.93;25.00;;;2.70;93.30;;;;;;5005294;28;20501;-81
2020/12/22 10:14:40;;;;;;;47.70;25.73;;;2.80;93.40;;;;;;5005003;28;20743;-80
2020/12/22 10:17:09;;;;;;;45.57;25.73;;;2.80;93.40;;;;;;5000278;28;20211;-83
2020/12/22 10:19:36;;;;;;;45.23;25.90;;;2.80;93.50;;;;;;5001548;28;20204;-84
2020/12/22 10:22:04;;;;;;;45.80;24.70;;;2.60;93.50;;;;;;4992541;28;20313;-82
2020/12/22 10:24:36;;;;;;;48.70;25.90;;;2.70;93.60;;;;;;4996591;28;20588;-82
2020/12/22 10:27:04;;;;;;;46.93;25.53;;;2.70;93.60;;;;;;5013660;28;20540;-81
2020/12/22 10:29:32;;;;;;;47.93;26.43;;;2.70;93.60;;;;;;5003710;28;20203;-84
2020/12/22 10:32:00;;;;;;;46.77;25.70;;;2.70;93.70;;;;;;5009225;28;20305;-83
2020/12/22 10:34:27;;;;;;;49.50;26.37;;;2.80;93.80;;;;;;5008897;28;20975;-81
2020/12/22 10:36:56;;;;;;;49.03;26.17;;;2.80;93.80;;;;;;5005967;28;20493;-83
2020/12/22 10:39:25;;;;;;;49.37;26.87;;;2.80;93.80;;;;;;5011520;28;20207;-83
2020/12/22 10:41:54;;;;;;;51.47;27.17;;;2.80;93.90;;;;;;5003976;28;20728;-82
2020/12/22 10:44:22;;;;;;;50.47;26.97;;;2.80;93.80;;;;;;5022665;28;20271;-82
2020/12/22 10:46:49;;;;;;;48.47;27.20;;;2.80;93.90;;;;;;5008839;28;20438;-81
2020/12/22 10:49:17;;;;;;;46.93;26.60;;;2.90;93.90;;;;;;5009829;28;20654;-81
2020/12/22 10:51:46;;;;;;;49.50;26.40;;;2.90;93.90;;;;;;5006666;28;20191;-83
2020/12/22 10:54:13;;;;;;;50.43;27.57;;;2.90;93.90;;;;;;5012867;28;20210;-79
2020/12/22 10:56:44;;;;;;;50.80;27.27;;;2.90;93.90;;;;;;5012425;28;20281;-83
2020/12/22 10:59:12;;;;;;;45.40;25.83;;;2.90;93.90;;;;;;5013921;28;20543;-82
2020/12/22 11:01:41;;;;;;;45.80;25.47;;;2.90;94.00;;;;;;5018391;28;20350;-80
2020/12/22 11:04:09;;;;;;;48.20;26.63;;;2.90;94.00;;;;;;5015599;28;20223;-79
2020/12/22 11:06:46;;;;;;;47.10;26.97;;;2.90;94.00;;;;;;5011194;28;20646;-80
2020/12/22 11:09:14;;;;;;;50.43;27.00;;;2.90;94.00;;;;;;5013140;28;20534;-80
2020/12/22 11:11:46;;;;;;;48.10;26.70;;;3.00;94.00;;;;;;5004870;28;20406;-83
2020/12/22 11:14:15;;;;;;;50.13;26.60;;;3.00;94.00;;;;;;5002690;28;20454;-79
2020/12/22 11:16:43;;;;;;;43.67;26.03;;;3.00;94.00;;;;;;5002777;28;20207;-81
2020/12/22 11:19:11;;;;;;;52.63;28.33;;;3.00;94.00;;;;;;5011111;28;20207;-83
2020/12/22 11:21:43;;;;;;;51.10;27.17;;;3.00;94.00;;;;;;5012112;28;20578;-82
2020/12/22 11:24:11;;;;;;;55.73;27.50;;;3.00;94.00;;;;;;5009501;28;20203;-83
2020/12/22 11:26:38;;;;;;;49.23;26.80;;;3.00;94.00;;;;;;5027802;28;20229;-82
2020/12/22 11:29:07;;;;;;;46.67;26.10;;;3.00;94.00;;;;;;5033761;28;20854;-81
2020/12/22 11:31:35;;;;;;;51.23;26.97;;;3.00;94.00;;;;;;5021039;28;20284;-82
2020/12/22 11:34:03;;;;;;;52.33;28.30;;;3.10;94.00;;;;;;5003354;28;20205;-80
2020/12/22 11:36:33;;;;;;;48.47;26.60;;;3.00;94.10;;;;;;5007296;28;20207;-80
2020/12/22 11:39:00;;;;;;;50.07;25.80;;;3.10;94.00;;;;;;5006395;28;20815;-79
2020/12/22 11:41:29;;;;;;;48.13;26.83;;;3.10;94.00;;;;;;5006056;28;20314;-81
2020/12/22 11:43:57;;;;;;;47.87;25.10;;;3.10;94.00;;;;;;5000855;28;20207;-80
2020/12/22 11:46:25;;;;;;;42.43;25.97;;;3.00;94.00;;;;;;5009697;28;20196;-81
2020/12/22 11:48:54;;;;;;;51.07;27.23;;;3.10;94.00;;;;;;5002097;28;20286;-82
2020/12/22 11:51:22;;;;;;;49.17;26.77;;;3.10;94.00;;;;;;5004186;28;20240;-82
2020/12/22 11:53:50;;;;;;;49.63;28.07;;;3.20;94.10;;;;;;5005677;28;21392;-82
2020/12/22 11:56:17;;;;;;;46.27;25.97;;;3.30;94.10;;;;;;5004503;28;20644;-77
2020/12/22 11:58:45;;;;;;;49.40;28.03;;;3.20;94.10;;;;;;5011095;28;20206;-81
2020/12/22 12:01:14;;;;;;;36.40;21.50;;;3.20;94.10;;;;;;5015857;28;20222;-82
2020/12/22 12:03:42;;;;;;;51.70;27.37;;;3.10;94.10;;;;;;5028727;28;20187;-79
2020/12/22 12:06:11;;;;;;;49.97;26.73;;;3.10;94.10;;;;;;5021649;28;20237;-81
2020/12/22 12:08:38;;;;;;;50.30;27.33;;;3.10;94.10;;;;;;5010961;28;20292;-82
2020/12/22 12:11:08;;;;;;;49.77;26.53;;;3.10;94.10;;;;;;5021978;28;20202;-80
2020/12/22 12:13:36;;;;;;;48.60;26.50;;;3.10;94.10;;;;;;5006661;28;20204;-81
2020/12/22 12:16:04;;;;;;;48.77;28.43;;;3.20;94.10;;;;;;5001211;28;20785;-81
2020/12/22 12:18:32;;;;;;;50.10;27.37;;;3.20;94.10;;;;;;5021260;28;20485;-78
2020/12/22 12:21:02;;;;;;;57.37;27.23;;;3.20;94.10;;;;;;5004322;28;20204;-82
2020/12/22 12:23:32;;;;;;;52.13;27.47;;;3.20;94.10;;;;;;5007377;28;20682;-80
2020/12/22 12:26:00;;;;;;;46.90;27.23;;;3.20;94.10;;;;;;5006873;28;20736;-82
2020/12/22 12:28:27;;;;;;;53.67;28.47;;;3.20;94.10;;;;;;5008738;28;20213;-79
2020/12/22 12:30:55;;;;;;;51.33;26.83;;;3.20;94.10;;;;;;5008942;28;20596;-81
2020/12/22 12:33:22;;;;;;;46.40;25.93;;;3.30;94.20;;;;;;5003340;28;20662;-79
2020/12/22 12:35:49;;;;;;;50.80;27.53;;;3.30;94.20;;;;;;5012490;28;20704;-81
2020/12/22 12:38:18;;;;;;;47.23;25.23;;;3.30;94.20;;;;;;5003268;28;20225;-82
2020/12/22 12:40:46;;;;;;;50.47;25.73;;;3.40;94.20;;;;;;5003453;28;20673;-83
2020/12/22 12:43:14;;;;;;;50.90;26.63;;;3.40;94.20;;;;;;5010393;28;20202;-82
2020/12/22 12:45:41;;;;;;;50.03;26.67;;;3.30;94.20;;;;;;5008069;28;20197;-79